createdAt,value
2022-12-01T00:05:01.338Z,2.42
2022-12-01T00:20:03.816Z,2.39
2022-12-01T00:35:06.736Z,2.39
2022-12-01T00:50:09.115Z,2.33
2022-12-01T01:05:11.136Z,2.29
2022-12-01T01:20:13.516Z,2.29
2022-12-01T01:35:15.556Z,2.23
2022-12-01T01:50:20.675Z,2.22
2022-12-01T02:05:32.414Z,2.19
2022-12-01T02:20:55.675Z,2.18
2022-12-01T02:36:10.573Z,2.18
2022-12-01T02:51:29.196Z,2.19
2022-12-01T03:06:54.604Z,2.13
2022-12-01T03:22:10.177Z,2.15
2022-12-01T03:37:22.735Z,2.13
2022-12-01T03:52:39.834Z,2.05
2022-12-01T04:07:41.843Z,2.01
2022-12-01T04:22:44.435Z,2.03
2022-12-01T04:37:46.476Z,1.99
2022-12-01T04:52:48.495Z,2.05
2022-12-01T05:07:50.433Z,2.02
2022-12-01T05:23:05.218Z,1.95
2022-12-01T05:38:08.495Z,1.92
2022-12-01T05:53:12.595Z,1.91
2022-12-01T06:08:14.714Z,1.97
2022-12-01T06:23:16.673Z,2.02
2022-12-01T06:38:18.616Z,2.02
2022-12-01T06:53:20.537Z,2.01
2022-12-01T07:08:22.435Z,2.05
2022-12-01T07:23:24.355Z,2.03
2022-12-01T07:38:28.975Z,2.11
2022-12-01T07:53:31.758Z,2.30
2022-12-01T08:08:35.828Z,2.46
2022-12-01T08:23:37.822Z,2.56
2022-12-01T08:38:39.835Z,2.59
2022-12-01T08:53:45.768Z,2.52
2022-12-01T09:08:48.414Z,2.56
2022-12-01T09:23:51.414Z,2.50
2022-12-01T09:38:53.393Z,2.61
2022-12-01T09:54:00.016Z,2.67
2022-12-01T10:09:07.816Z,2.70
2022-12-01T10:24:18.489Z,2.67
2022-12-01T10:39:28.556Z,2.66
2022-12-01T10:54:39.674Z,2.59
2022-12-01T11:09:41.715Z,2.57
2022-12-01T11:25:04.974Z,2.53
2022-12-01T11:40:46.375Z,2.63
2022-12-01T11:55:48.436Z,2.57
2022-12-01T12:11:18.276Z,2.52
2022-12-01T12:26:55.376Z,2.33
2022-12-01T12:41:58.914Z,2.36
2022-12-01T12:57:16.216Z,2.38
2022-12-01T13:12:32.747Z,2.32
2022-12-01T13:27:38.681Z,2.23
2022-12-01T13:42:41.317Z,2.23
2022-12-01T13:57:58.635Z,2.21
2022-12-01T14:13:04.334Z,2.06
2022-12-01T14:28:16.300Z,2.03
2022-12-01T14:43:37.162Z,1.97
2022-12-01T14:58:39.255Z,1.97
2022-12-01T15:13:57.885Z,1.84
2022-12-01T15:29:17.850Z,1.75
2022-12-01T15:44:29.534Z,1.77
2022-12-01T15:59:44.512Z,1.70
2022-12-01T16:15:01.858Z,1.63
2022-12-01T16:30:21.020Z,1.59
2022-12-01T16:45:27.629Z,1.50
2022-12-01T17:00:29.986Z,1.50
2022-12-01T17:15:32.030Z,1.40
2022-12-01T17:30:36.178Z,1.32
2022-12-01T17:45:42.259Z,1.16
2022-12-01T18:00:44.261Z,1.11
2022-12-01T18:15:46.323Z,0.99
2022-12-01T18:30:49.482Z,1.25
2022-12-01T18:45:51.918Z,0.87
2022-12-01T19:00:53.904Z,0.60
2022-12-01T19:15:56.009Z,0.53
2022-12-01T19:30:58.186Z,0.35
2022-12-01T19:46:05.671Z,0.22
2022-12-01T20:01:10.326Z,0.28
2022-12-01T20:16:21.837Z,0.23
2022-12-01T20:31:26.771Z,0.37
2022-12-01T20:46:28.921Z,0.18
2022-12-01T21:01:30.973Z,-0.09
2022-12-01T21:16:34.125Z,-0.18
2022-12-01T21:31:37.416Z,-0.30
2022-12-01T21:46:41.699Z,-0.43
2022-12-01T22:01:43.794Z,-0.50
2022-12-01T22:16:51.800Z,-0.43
2022-12-01T22:32:13.924Z,-0.49
2022-12-01T22:47:15.859Z,-0.60
2022-12-01T23:02:23.983Z,-0.61
2022-12-01T23:17:31.352Z,-0.67
2022-12-01T23:32:33.392Z,-0.74
2022-12-01T23:47:35.333Z,-0.74
